Terminal Aerodrome Forecast
Issued by NWS

Home | Current Version | Previous Version | Text Only | Print | Product List | Glossary On
Versions: 1 2 3 4 5 6 7 8 9 10 11 12 13 14 15 16 17 18 19 20
647
FTUS43 KILX 142353
TAFBMI
TAF
KBMI 142353Z 1500/1524 VRB04KT P6SM SCT035 BKN200
     FM150300 28004KT P6SM BKN025
     FM151200 25008KT P6SM BKN070
     FM151600 28011KT P6SM BKN060
     FM152300 24008KT P6SM BKN090=

USA.gov is the U.S. government's official web portal to all federal, state and local government web resources and services.